sensor_id;sensor_type;location;lat;lon;timestamp;P1;durP1;ratioP1;P2;durP2;ratioP2
49051;SDS011;34866;48.670;18.260;2022-10-31T00:01:23;22.25;;;7.40;;
49051;SDS011;34866;48.670;18.260;2022-10-31T00:03:51;22.60;;;8.13;;
49051;SDS011;34866;48.670;18.260;2022-10-31T00:06:17;26.23;;;9.30;;
49051;SDS011;34866;48.670;18.260;2022-10-31T00:08:44;30.55;;;8.02;;
49051;SDS011;34866;48.670;18.260;2022-10-31T00:11:11;25.23;;;8.82;;
49051;SDS011;34866;48.670;18.260;2022-10-31T00:13:36;25.50;;;9.20;;
49051;SDS011;34866;48.670;18.260;2022-10-31T00:16:04;23.15;;;9.20;;
49051;SDS011;34866;48.670;18.260;2022-10-31T00:18:30;21.35;;;8.23;;
49051;SDS011;34866;48.670;18.260;2022-10-31T00:21:08;35.40;;;8.05;;
49051;SDS011;34866;48.670;18.260;2022-10-31T00:23:34;22.83;;;7.63;;
49051;SDS011;34866;48.670;18.260;2022-10-31T00:26:00;22.58;;;8.65;;
49051;SDS011;34866;48.670;18.260;2022-10-31T00:28:33;27.20;;;10.27;;
49051;SDS011;34866;48.670;18.260;2022-10-31T00:30:59;21.52;;;8.23;;
49051;SDS011;34866;48.670;18.260;2022-10-31T00:33:27;20.08;;;8.48;;
49051;SDS011;34866;48.670;18.260;2022-10-31T00:35:55;30.58;;;8.48;;
49051;SDS011;34866;48.670;18.260;2022-10-31T00:38:21;75.03;;;9.73;;
49051;SDS011;34866;48.670;18.260;2022-10-31T00:40:48;38.83;;;8.30;;
49051;SDS011;34866;48.670;18.260;2022-10-31T00:43:25;26.40;;;8.13;;
49051;SDS011;34866;48.670;18.260;2022-10-31T00:45:51;33.08;;;8.15;;
49051;SDS011;34866;48.670;18.260;2022-10-31T00:48:18;26.40;;;8.00;;
49051;SDS011;34866;48.670;18.260;2022-10-31T00:50:43;24.05;;;7.38;;
49051;SDS011;34866;48.670;18.260;2022-10-31T00:53:10;49.45;;;7.65;;
49051;SDS011;34866;48.670;18.260;2022-10-31T00:55:36;22.58;;;7.97;;
49051;SDS011;34866;48.670;18.260;2022-10-31T00:58:01;24.75;;;8.18;;
49051;SDS011;34866;48.670;18.260;2022-10-31T01:00:27;28.27;;;7.72;;
49051;SDS011;34866;48.670;18.260;2022-10-31T01:02:53;17.42;;;7.15;;
49051;SDS011;34866;48.670;18.260;2022-10-31T01:05:22;23.45;;;8.98;;
49051;SDS011;34866;48.670;18.260;2022-10-31T01:07:48;21.02;;;7.47;;
49051;SDS011;34866;48.670;18.260;2022-10-31T01:10:17;30.05;;;8.43;;
49051;SDS011;34866;48.670;18.260;2022-10-31T01:12:46;21.15;;;7.15;;
49051;SDS011;34866;48.670;18.260;2022-10-31T01:15:14;32.08;;;7.47;;
49051;SDS011;34866;48.670;18.260;2022-10-31T01:17:49;39.80;;;7.55;;
49051;SDS011;34866;48.670;18.260;2022-10-31T01:20:15;35.30;;;7.90;;
49051;SDS011;34866;48.670;18.260;2022-10-31T01:22:41;26.10;;;7.20;;
49051;SDS011;34866;48.670;18.260;2022-10-31T01:25:07;31.85;;;8.05;;
49051;SDS011;34866;48.670;18.260;2022-10-31T01:27:40;42.90;;;7.68;;
49051;SDS011;34866;48.670;18.260;2022-10-31T01:30:12;27.23;;;8.68;;
49051;SDS011;34866;48.670;18.260;2022-10-31T01:32:38;24.67;;;8.18;;
49051;SDS011;34866;48.670;18.260;2022-10-31T01:35:04;24.35;;;7.93;;
49051;SDS011;34866;48.670;18.260;2022-10-31T01:37:30;23.00;;;8.07;;
49051;SDS011;34866;48.670;18.260;2022-10-31T01:39:56;28.02;;;8.70;;
49051;SDS011;34866;48.670;18.260;2022-10-31T01:42:22;28.00;;;6.90;;
49051;SDS011;34866;48.670;18.260;2022-10-31T01:44:54;28.90;;;8.40;;
49051;SDS011;34866;48.670;18.260;2022-10-31T01:47:27;20.60;;;7.35;;
49051;SDS011;34866;48.670;18.260;2022-10-31T01:50:35;42.17;;;8.43;;
49051;SDS011;34866;48.670;18.260;2022-10-31T01:53:03;22.58;;;7.15;;
49051;SDS011;34866;48.670;18.260;2022-10-31T01:55:35;24.95;;;7.22;;
49051;SDS011;34866;48.670;18.260;2022-10-31T01:58:24;20.50;;;7.35;;
49051;SDS011;34866;48.670;18.260;2022-10-31T02:00:54;42.97;;;8.85;;
49051;SDS011;34866;48.670;18.260;2022-10-31T02:03:23;26.02;;;7.18;;
49051;SDS011;34866;48.670;18.260;2022-10-31T02:05:50;31.40;;;7.90;;
49051;SDS011;34866;48.670;18.260;2022-10-31T02:08:35;38.20;;;9.07;;
49051;SDS011;34866;48.670;18.260;2022-10-31T02:11:09;34.63;;;7.80;;
49051;SDS011;34866;48.670;18.260;2022-10-31T02:13:35;30.55;;;7.60;;
49051;SDS011;34866;48.670;18.260;2022-10-31T02:16:02;18.75;;;8.25;;
49051;SDS011;34866;48.670;18.260;2022-10-31T02:18:33;21.55;;;6.75;;
49051;SDS011;34866;48.670;18.260;2022-10-31T02:27:27;24.70;;;7.15;;
49051;SDS011;34866;48.670;18.260;2022-10-31T02:30:18;30.20;;;7.82;;
49051;SDS011;34866;48.670;18.260;2022-10-31T02:40:42;17.90;;;6.13;;
49051;SDS011;34866;48.670;18.260;2022-10-31T02:46:34;22.73;;;6.85;;
49051;SDS011;34866;48.670;18.260;2022-10-31T02:49:24;18.42;;;6.55;;
49051;SDS011;34866;48.670;18.260;2022-10-31T02:52:40;16.50;;;5.70;;
49051;SDS011;34866;48.670;18.260;2022-10-31T02:58:17;21.58;;;6.80;;
49051;SDS011;34866;48.670;18.260;2022-10-31T03:09:11;17.20;;;6.25;;
49051;SDS011;34866;48.670;18.260;2022-10-31T03:11:46;22.63;;;6.18;;
49051;SDS011;34866;48.670;18.260;2022-10-31T03:14:21;17.55;;;6.10;;
49051;SDS011;34866;48.670;18.260;2022-10-31T03:17:01;18.05;;;4.70;;
49051;SDS011;34866;48.670;18.260;2022-10-31T03:19:40;16.08;;;6.55;;
49051;SDS011;34866;48.670;18.260;2022-10-31T03:22:19;15.63;;;6.47;;
49051;SDS011;34866;48.670;18.260;2022-10-31T03:27:51;20.42;;;5.78;;
49051;SDS011;34866;48.670;18.260;2022-10-31T03:30:21;15.50;;;5.47;;
49051;SDS011;34866;48.670;18.260;2022-10-31T03:32:51;15.30;;;4.50;;
49051;SDS011;34866;48.670;18.260;2022-10-31T03:35:23;16.50;;;5.85;;
49051;SDS011;34866;48.670;18.260;2022-10-31T03:37:52;22.38;;;5.95;;
49051;SDS011;34866;48.670;18.260;2022-10-31T03:40:22;15.02;;;5.03;;
49051;SDS011;34866;48.670;18.260;2022-10-31T03:43:00;14.10;;;4.20;;
49051;SDS011;34866;48.670;18.260;2022-10-31T03:45:32;27.67;;;5.43;;
49051;SDS011;34866;48.670;18.260;2022-10-31T03:48:01;25.67;;;5.63;;
49051;SDS011;34866;48.670;18.260;2022-10-31T03:50:28;11.80;;;4.63;;
49051;SDS011;34866;48.670;18.260;2022-10-31T03:53:04;18.38;;;5.30;;
49051;SDS011;34866;48.670;18.260;2022-10-31T03:59:05;19.02;;;5.28;;
49051;SDS011;34866;48.670;18.260;2022-10-31T04:01:39;39.90;;;6.22;;
49051;SDS011;34866;48.670;18.260;2022-10-31T04:04:12;13.35;;;4.70;;
49051;SDS011;34866;48.670;18.260;2022-10-31T04:06:39;15.10;;;5.03;;
49051;SDS011;34866;48.670;18.260;2022-10-31T04:09:11;20.50;;;5.30;;
49051;SDS011;34866;48.670;18.260;2022-10-31T04:11:46;12.98;;;4.93;;
49051;SDS011;34866;48.670;18.260;2022-10-31T04:14:16;11.45;;;4.95;;
49051;SDS011;34866;48.670;18.260;2022-10-31T04:16:44;27.00;;;5.57;;
49051;SDS011;34866;48.670;18.260;2022-10-31T04:19:19;26.35;;;4.90;;
49051;SDS011;34866;48.670;18.260;2022-10-31T04:24:14;16.77;;;4.25;;
49051;SDS011;34866;48.670;18.260;2022-10-31T04:26:41;8.98;;;4.38;;
49051;SDS011;34866;48.670;18.260;2022-10-31T04:32:00;7.28;;;3.42;;
49051;SDS011;34866;48.670;18.260;2022-10-31T04:34:26;9.18;;;4.25;;
49051;SDS011;34866;48.670;18.260;2022-10-31T04:36:54;14.02;;;3.88;;
49051;SDS011;34866;48.670;18.260;2022-10-31T04:39:20;12.20;;;3.83;;
49051;SDS011;34866;48.670;18.260;2022-10-31T04:41:46;9.18;;;4.15;;
49051;SDS011;34866;48.670;18.260;2022-10-31T04:44:15;9.00;;;3.60;;
49051;SDS011;34866;48.670;18.260;2022-10-31T04:46:47;12.13;;;3.60;;
49051;SDS011;34866;48.670;18.260;2022-10-31T04:49:13;8.75;;;3.47;;
49051;SDS011;34866;48.670;18.260;2022-10-31T04:51:40;17.92;;;4.85;;
49051;SDS011;34866;48.670;18.260;2022-10-31T04:54:33;11.65;;;3.30;;
49051;SDS011;34866;48.670;18.260;2022-10-31T04:56:59;8.18;;;3.55;;
49051;SDS011;34866;48.670;18.260;2022-10-31T04:59:27;7.38;;;3.53;;
49051;SDS011;34866;48.670;18.260;2022-10-31T05:01:54;8.85;;;3.58;;
49051;SDS011;34866;48.670;18.260;2022-10-31T05:04:20;10.18;;;3.50;;
49051;SDS011;34866;48.670;18.260;2022-10-31T05:06:46;8.90;;;3.83;;
49051;SDS011;34866;48.670;18.260;2022-10-31T05:09:15;21.13;;;3.95;;
49051;SDS011;34866;48.670;18.260;2022-10-31T05:11:46;30.20;;;4.13;;
49051;SDS011;34866;48.670;18.260;2022-10-31T05:14:15;20.83;;;4.22;;
49051;SDS011;34866;48.670;18.260;2022-10-31T05:16:42;13.43;;;3.42;;
49051;SDS011;34866;48.670;18.260;2022-10-31T05:19:08;8.05;;;3.75;;
49051;SDS011;34866;48.670;18.260;2022-10-31T05:21:42;12.55;;;4.50;;
49051;SDS011;34866;48.670;18.260;2022-10-31T05:24:14;11.57;;;4.03;;
49051;SDS011;34866;48.670;18.260;2022-10-31T05:26:42;8.10;;;3.53;;
49051;SDS011;34866;48.670;18.260;2022-10-31T05:29:11;7.72;;;3.15;;
49051;SDS011;34866;48.670;18.260;2022-10-31T05:31:36;11.15;;;4.22;;
49051;SDS011;34866;48.670;18.260;2022-10-31T05:34:05;11.27;;;4.25;;
49051;SDS011;34866;48.670;18.260;2022-10-31T05:36:33;10.38;;;4.03;;
49051;SDS011;34866;48.670;18.260;2022-10-31T05:39:08;10.50;;;2.85;;
49051;SDS011;34866;48.670;18.260;2022-10-31T05:41:39;7.70;;;3.40;;
49051;SDS011;34866;48.670;18.260;2022-10-31T05:44:34;17.20;;;3.65;;
49051;SDS011;34866;48.670;18.260;2022-10-31T05:47:00;12.80;;;3.92;;
49051;SDS011;34866;48.670;18.260;2022-10-31T05:49:31;29.95;;;3.97;;
49051;SDS011;34866;48.670;18.260;2022-10-31T05:51:57;10.93;;;3.30;;
49051;SDS011;34866;48.670;18.260;2022-10-31T05:54:36;10.20;;;3.72;;
49051;SDS011;34866;48.670;18.260;2022-10-31T05:57:28;9.30;;;3.17;;
49051;SDS011;34866;48.670;18.260;2022-10-31T05:59:55;13.45;;;3.35;;
49051;SDS011;34866;48.670;18.260;2022-10-31T06:02:24;7.40;;;3.15;;
49051;SDS011;34866;48.670;18.260;2022-10-31T06:07:47;12.35;;;3.10;;
49051;SDS011;34866;48.670;18.260;2022-10-31T06:10:36;9.30;;;4.13;;
49051;SDS011;34866;48.670;18.260;2022-10-31T06:13:10;7.65;;;3.08;;
49051;SDS011;34866;48.670;18.260;2022-10-31T06:15:48;8.27;;;3.58;;
49051;SDS011;34866;48.670;18.260;2022-10-31T06:20:57;26.98;;;3.55;;
49051;SDS011;34866;48.670;18.260;2022-10-31T06:25:53;9.65;;;3.75;;
49051;SDS011;34866;48.670;18.260;2022-10-31T06:28:23;8.55;;;3.20;;
49051;SDS011;34866;48.670;18.260;2022-10-31T06:31:03;6.47;;;2.85;;
49051;SDS011;34866;48.670;18.260;2022-10-31T06:33:29;8.55;;;3.25;;
49051;SDS011;34866;48.670;18.260;2022-10-31T06:36:00;8.43;;;3.40;;
49051;SDS011;34866;48.670;18.260;2022-10-31T06:38:27;9.05;;;3.28;;
49051;SDS011;34866;48.670;18.260;2022-10-31T06:41:08;8.90;;;3.35;;
49051;SDS011;34866;48.670;18.260;2022-10-31T06:43:36;10.57;;;3.55;;
49051;SDS011;34866;48.670;18.260;2022-10-31T06:46:03;9.18;;;3.63;;
49051;SDS011;34866;48.670;18.260;2022-10-31T06:49:01;7.75;;;3.00;;
49051;SDS011;34866;48.670;18.260;2022-10-31T06:51:39;7.78;;;2.85;;
49051;SDS011;34866;48.670;18.260;2022-10-31T06:54:06;8.85;;;3.20;;
49051;SDS011;34866;48.670;18.260;2022-10-31T06:56:47;6.50;;;2.83;;
49051;SDS011;34866;48.670;18.260;2022-10-31T06:59:15;11.27;;;3.70;;
49051;SDS011;34866;48.670;18.260;2022-10-31T07:04:41;10.43;;;3.22;;
49051;SDS011;34866;48.670;18.260;2022-10-31T07:07:06;6.32;;;3.33;;
49051;SDS011;34866;48.670;18.260;2022-10-31T07:09:40;8.05;;;2.80;;
49051;SDS011;34866;48.670;18.260;2022-10-31T07:12:27;9.32;;;3.50;;
49051;SDS011;34866;48.670;18.260;2022-10-31T07:17:45;8.82;;;3.25;;
49051;SDS011;34866;48.670;18.260;2022-10-31T07:20:15;7.55;;;3.38;;
49051;SDS011;34866;48.670;18.260;2022-10-31T07:22:50;5.95;;;3.00;;
49051;SDS011;34866;48.670;18.260;2022-10-31T07:25:16;5.70;;;2.50;;
49051;SDS011;34866;48.670;18.260;2022-10-31T07:27:44;10.15;;;3.05;;
49051;SDS011;34866;48.670;18.260;2022-10-31T07:30:22;6.43;;;2.90;;
49051;SDS011;34866;48.670;18.260;2022-10-31T07:32:51;10.48;;;3.10;;
49051;SDS011;34866;48.670;18.260;2022-10-31T07:35:36;8.20;;;2.95;;
49051;SDS011;34866;48.670;18.260;2022-10-31T07:38:11;10.25;;;3.03;;
49051;SDS011;34866;48.670;18.260;2022-10-31T07:40:51;6.93;;;3.05;;
49051;SDS011;34866;48.670;18.260;2022-10-31T07:43:19;8.32;;;3.55;;
49051;SDS011;34866;48.670;18.260;2022-10-31T07:45:51;6.25;;;3.17;;
49051;SDS011;34866;48.670;18.260;2022-10-31T07:48:20;7.22;;;3.35;;
49051;SDS011;34866;48.670;18.260;2022-10-31T07:50:46;6.97;;;3.20;;
49051;SDS011;34866;48.670;18.260;2022-10-31T07:53:18;6.95;;;3.42;;
49051;SDS011;34866;48.670;18.260;2022-10-31T07:55:47;9.18;;;4.07;;
49051;SDS011;34866;48.670;18.260;2022-10-31T07:58:25;9.88;;;4.00;;
49051;SDS011;34866;48.670;18.260;2022-10-31T08:00:51;7.28;;;3.47;;
49051;SDS011;34866;48.670;18.260;2022-10-31T08:03:20;9.77;;;3.80;;
49051;SDS011;34866;48.670;18.260;2022-10-31T08:05:46;8.35;;;4.05;;
49051;SDS011;34866;48.670;18.260;2022-10-31T08:08:12;10.88;;;3.65;;
49051;SDS011;34866;48.670;18.260;2022-10-31T08:10:38;8.48;;;3.45;;
49051;SDS011;34866;48.670;18.260;2022-10-31T08:13:08;9.25;;;3.88;;
49051;SDS011;34866;48.670;18.260;2022-10-31T08:15:35;8.32;;;3.55;;
49051;SDS011;34866;48.670;18.260;2022-10-31T08:18:05;11.77;;;3.83;;
49051;SDS011;34866;48.670;18.260;2022-10-31T08:20:33;10.73;;;3.97;;
49051;SDS011;34866;48.670;18.260;2022-10-31T08:23:05;9.57;;;3.78;;
49051;SDS011;34866;48.670;18.260;2022-10-31T08:25:34;11.00;;;3.58;;
49051;SDS011;34866;48.670;18.260;2022-10-31T08:28:10;9.82;;;4.32;;
49051;SDS011;34866;48.670;18.260;2022-10-31T08:30:42;10.73;;;4.28;;
49051;SDS011;34866;48.670;18.260;2022-10-31T08:33:09;11.38;;;4.88;;
49051;SDS011;34866;48.670;18.260;2022-10-31T08:35:40;10.93;;;4.60;;
49051;SDS011;34866;48.670;18.260;2022-10-31T08:38:08;15.55;;;5.70;;
49051;SDS011;34866;48.670;18.260;2022-10-31T08:40:35;12.13;;;4.63;;
49051;SDS011;34866;48.670;18.260;2022-10-31T08:43:14;12.52;;;5.60;;
49051;SDS011;34866;48.670;18.260;2022-10-31T08:45:41;14.00;;;5.97;;
49051;SDS011;34866;48.670;18.260;2022-10-31T08:50:55;11.93;;;5.07;;
49051;SDS011;34866;48.670;18.260;2022-10-31T08:53:23;14.52;;;5.18;;
49051;SDS011;34866;48.670;18.260;2022-10-31T08:55:55;8.52;;;3.85;;
49051;SDS011;34866;48.670;18.260;2022-10-31T08:58:36;11.45;;;4.72;;
49051;SDS011;34866;48.670;18.260;2022-10-31T09:01:08;11.05;;;5.03;;
49051;SDS011;34866;48.670;18.260;2022-10-31T09:03:33;12.60;;;6.18;;
49051;SDS011;34866;48.670;18.260;2022-10-31T09:06:08;13.27;;;5.75;;
49051;SDS011;34866;48.670;18.260;2022-10-31T09:08:34;20.88;;;9.23;;
49051;SDS011;34866;48.670;18.260;2022-10-31T09:11:01;12.50;;;5.90;;
49051;SDS011;34866;48.670;18.260;2022-10-31T09:13:27;13.57;;;6.15;;
49051;SDS011;34866;48.670;18.260;2022-10-31T09:15:53;14.40;;;5.25;;
49051;SDS011;34866;48.670;18.260;2022-10-31T09:18:21;11.88;;;4.82;;
49051;SDS011;34866;48.670;18.260;2022-10-31T09:20:48;9.85;;;4.32;;
49051;SDS011;34866;48.670;18.260;2022-10-31T09:23:15;11.77;;;5.25;;
49051;SDS011;34866;48.670;18.260;2022-10-31T09:25:47;11.88;;;5.70;;
49051;SDS011;34866;48.670;18.260;2022-10-31T09:28:16;11.63;;;4.80;;
49051;SDS011;34866;48.670;18.260;2022-10-31T09:30:45;12.88;;;5.47;;
49051;SDS011;34866;48.670;18.260;2022-10-31T09:33:12;14.90;;;5.30;;
49051;SDS011;34866;48.670;18.260;2022-10-31T09:35:38;13.70;;;5.20;;
49051;SDS011;34866;48.670;18.260;2022-10-31T09:38:06;13.57;;;5.72;;
49051;SDS011;34866;48.670;18.260;2022-10-31T09:52:26;15.57;;;6.55;;
49051;SDS011;34866;48.670;18.260;2022-10-31T09:55:04;18.77;;;7.07;;
49051;SDS011;34866;48.670;18.260;2022-10-31T09:57:44;17.73;;;7.65;;
49051;SDS011;34866;48.670;18.260;2022-10-31T10:00:16;15.25;;;6.28;;
49051;SDS011;34866;48.670;18.260;2022-10-31T10:05:29;19.52;;;6.85;;
49051;SDS011;34866;48.670;18.260;2022-10-31T10:08:07;15.93;;;6.97;;
49051;SDS011;34866;48.670;18.260;2022-10-31T10:13:55;20.10;;;7.38;;
49051;SDS011;34866;48.670;18.260;2022-10-31T10:22:13;18.73;;;7.88;;
49051;SDS011;34866;48.670;18.260;2022-10-31T10:31:06;21.13;;;8.10;;
49051;SDS011;34866;48.670;18.260;2022-10-31T10:33:44;19.45;;;7.22;;
49051;SDS011;34866;48.670;18.260;2022-10-31T10:36:44;20.02;;;7.85;;
49051;SDS011;34866;48.670;18.260;2022-10-31T10:42:13;17.33;;;7.70;;
49051;SDS011;34866;48.670;18.260;2022-10-31T10:44:59;17.75;;;6.88;;
49051;SDS011;34866;48.670;18.260;2022-10-31T10:47:54;19.70;;;7.18;;
49051;SDS011;34866;48.670;18.260;2022-10-31T10:50:32;16.63;;;7.00;;
49051;SDS011;34866;48.670;18.260;2022-10-31T10:53:06;17.45;;;7.03;;
49051;SDS011;34866;48.670;18.260;2022-10-31T10:56:14;15.45;;;6.93;;
49051;SDS011;34866;48.670;18.260;2022-10-31T10:58:42;13.18;;;5.72;;
49051;SDS011;34866;48.670;18.260;2022-10-31T11:01:11;20.98;;;8.75;;
49051;SDS011;34866;48.670;18.260;2022-10-31T11:03:38;23.83;;;7.82;;
49051;SDS011;34866;48.670;18.260;2022-10-31T11:06:15;22.55;;;7.95;;
49051;SDS011;34866;48.670;18.260;2022-10-31T11:08:47;15.27;;;6.93;;
49051;SDS011;34866;48.670;18.260;2022-10-31T11:11:24;16.77;;;7.45;;
49051;SDS011;34866;48.670;18.260;2022-10-31T11:14:02;16.85;;;7.70;;
49051;SDS011;34866;48.670;18.260;2022-10-31T11:16:33;21.75;;;8.05;;
49051;SDS011;34866;48.670;18.260;2022-10-31T11:19:17;21.48;;;7.47;;
49051;SDS011;34866;48.670;18.260;2022-10-31T11:21:46;24.98;;;7.55;;
49051;SDS011;34866;48.670;18.260;2022-10-31T11:24:17;16.27;;;7.18;;
49051;SDS011;34866;48.670;18.260;2022-10-31T11:26:45;21.55;;;8.27;;
49051;SDS011;34866;48.670;18.260;2022-10-31T11:29:17;15.85;;;7.30;;
49051;SDS011;34866;48.670;18.260;2022-10-31T11:31:50;18.92;;;7.95;;
49051;SDS011;34866;48.670;18.260;2022-10-31T11:34:21;19.02;;;7.78;;
49051;SDS011;34866;48.670;18.260;2022-10-31T11:36:48;20.60;;;7.82;;
49051;SDS011;34866;48.670;18.260;2022-10-31T11:39:17;17.35;;;8.07;;
49051;SDS011;34866;48.670;18.260;2022-10-31T11:41:48;24.08;;;8.13;;
49051;SDS011;34866;48.670;18.260;2022-10-31T11:46:54;16.48;;;7.30;;
49051;SDS011;34866;48.670;18.260;2022-10-31T11:51:59;18.27;;;7.40;;
49051;SDS011;34866;48.670;18.260;2022-10-31T11:54:36;16.67;;;7.15;;
49051;SDS011;34866;48.670;18.260;2022-10-31T12:00:28;15.75;;;7.13;;
49051;SDS011;34866;48.670;18.260;2022-10-31T12:03:10;17.27;;;7.53;;
49051;SDS011;34866;48.670;18.260;2022-10-31T12:05:44;20.23;;;7.70;;
49051;SDS011;34866;48.670;18.260;2022-10-31T12:08:12;18.40;;;7.15;;
49051;SDS011;34866;48.670;18.260;2022-10-31T12:13:34;16.40;;;6.82;;
49051;SDS011;34866;48.670;18.260;2022-10-31T12:16:21;15.18;;;6.45;;
49051;SDS011;34866;48.670;18.260;2022-10-31T12:18:58;13.35;;;5.75;;
49051;SDS011;34866;48.670;18.260;2022-10-31T12:21:51;17.92;;;7.05;;
49051;SDS011;34866;48.670;18.260;2022-10-31T12:40:36;10.07;;;4.82;;
49051;SDS011;34866;48.670;18.260;2022-10-31T12:43:17;14.98;;;4.88;;
49051;SDS011;34866;48.670;18.260;2022-10-31T12:48:55;40.97;;;16.25;;
49051;SDS011;34866;48.670;18.260;2022-10-31T12:57:52;13.02;;;5.47;;
49051;SDS011;34866;48.670;18.260;2022-10-31T13:00:23;13.55;;;5.93;;
49051;SDS011;34866;48.670;18.260;2022-10-31T13:08:06;17.30;;;5.40;;
49051;SDS011;34866;48.670;18.260;2022-10-31T13:10:47;12.63;;;4.78;;
49051;SDS011;34866;48.670;18.260;2022-10-31T13:16:20;8.73;;;4.18;;
49051;SDS011;34866;48.670;18.260;2022-10-31T13:19:23;11.32;;;4.95;;
49051;SDS011;34866;48.670;18.260;2022-10-31T13:27:27;13.27;;;5.13;;
49051;SDS011;34866;48.670;18.260;2022-10-31T13:30:01;10.27;;;4.88;;
49051;SDS011;34866;48.670;18.260;2022-10-31T13:32:46;15.20;;;5.43;;
49051;SDS011;34866;48.670;18.260;2022-10-31T13:38:17;10.60;;;4.63;;
49051;SDS011;34866;48.670;18.260;2022-10-31T13:46:49;13.38;;;6.05;;
49051;SDS011;34866;48.670;18.260;2022-10-31T13:49:21;11.15;;;6.07;;
49051;SDS011;34866;48.670;18.260;2022-10-31T13:51:48;12.93;;;6.57;;
49051;SDS011;34866;48.670;18.260;2022-10-31T13:54:21;23.33;;;6.03;;
49051;SDS011;34866;48.670;18.260;2022-10-31T13:56:50;13.15;;;5.80;;
49051;SDS011;34866;48.670;18.260;2022-10-31T13:59:18;11.73;;;4.97;;
49051;SDS011;34866;48.670;18.260;2022-10-31T14:01:54;9.10;;;4.43;;
49051;SDS011;34866;48.670;18.260;2022-10-31T14:04:24;17.05;;;5.53;;
49051;SDS011;34866;48.670;18.260;2022-10-31T14:06:56;20.33;;;9.63;;
49051;SDS011;34866;48.670;18.260;2022-10-31T14:13:15;13.07;;;4.80;;
49051;SDS011;34866;48.670;18.260;2022-10-31T14:16:18;11.85;;;5.00;;
49051;SDS011;34866;48.670;18.260;2022-10-31T14:18:48;11.25;;;4.82;;
49051;SDS011;34866;48.670;18.260;2022-10-31T14:23:55;11.18;;;5.55;;
49051;SDS011;34866;48.670;18.260;2022-10-31T14:28:52;12.82;;;5.60;;
49051;SDS011;34866;48.670;18.260;2022-10-31T14:31:38;13.13;;;5.53;;
49051;SDS011;34866;48.670;18.260;2022-10-31T14:36:56;16.60;;;8.32;;
49051;SDS011;34866;48.670;18.260;2022-10-31T14:53:50;14.57;;;6.25;;
49051;SDS011;34866;48.670;18.260;2022-10-31T14:56:20;9.43;;;5.05;;
49051;SDS011;34866;48.670;18.260;2022-10-31T14:59:00;12.93;;;5.25;;
49051;SDS011;34866;48.670;18.260;2022-10-31T15:01:38;10.43;;;5.30;;
49051;SDS011;34866;48.670;18.260;2022-10-31T15:04:14;10.50;;;4.82;;
49051;SDS011;34866;48.670;18.260;2022-10-31T15:06:47;18.25;;;5.03;;
49051;SDS011;34866;48.670;18.260;2022-10-31T15:09:25;12.80;;;5.88;;
49051;SDS011;34866;48.670;18.260;2022-10-31T15:11:59;24.65;;;5.55;;
49051;SDS011;34866;48.670;18.260;2022-10-31T15:14:29;11.65;;;5.38;;
49051;SDS011;34866;48.670;18.260;2022-10-31T15:17:01;14.70;;;4.90;;
49051;SDS011;34866;48.670;18.260;2022-10-31T15:19:34;12.38;;;5.55;;
49051;SDS011;34866;48.670;18.260;2022-10-31T15:22:04;13.23;;;5.55;;
49051;SDS011;34866;48.670;18.260;2022-10-31T15:24:33;10.10;;;4.88;;
49051;SDS011;34866;48.670;18.260;2022-10-31T15:27:01;12.50;;;5.97;;
49051;SDS011;34866;48.670;18.260;2022-10-31T15:29:27;11.25;;;5.53;;
49051;SDS011;34866;48.670;18.260;2022-10-31T15:31:58;11.20;;;4.85;;
49051;SDS011;34866;48.670;18.260;2022-10-31T15:34:37;14.35;;;5.45;;
49051;SDS011;34866;48.670;18.260;2022-10-31T15:37:08;13.00;;;5.60;;
49051;SDS011;34866;48.670;18.260;2022-10-31T15:39:36;11.60;;;5.30;;
49051;SDS011;34866;48.670;18.260;2022-10-31T15:42:02;10.73;;;5.30;;
49051;SDS011;34866;48.670;18.260;2022-10-31T15:44:32;13.40;;;6.07;;
49051;SDS011;34866;48.670;18.260;2022-10-31T15:47:02;15.23;;;7.10;;
49051;SDS011;34866;48.670;18.260;2022-10-31T15:49:41;13.27;;;7.57;;
49051;SDS011;34866;48.670;18.260;2022-10-31T15:55:15;11.95;;;6.45;;
49051;SDS011;34866;48.670;18.260;2022-10-31T15:57:48;13.02;;;6.18;;
49051;SDS011;34866;48.670;18.260;2022-10-31T16:00:29;17.85;;;5.75;;
49051;SDS011;34866;48.670;18.260;2022-10-31T16:05:47;17.70;;;8.63;;
49051;SDS011;34866;48.670;18.260;2022-10-31T16:13:41;11.75;;;6.22;;
49051;SDS011;34866;48.670;18.260;2022-10-31T16:16:18;12.27;;;6.30;;
49051;SDS011;34866;48.670;18.260;2022-10-31T16:18:45;13.43;;;6.95;;
49051;SDS011;34866;48.670;18.260;2022-10-31T16:21:13;19.88;;;8.05;;
49051;SDS011;34866;48.670;18.260;2022-10-31T16:23:39;15.50;;;7.85;;
49051;SDS011;34866;48.670;18.260;2022-10-31T16:26:13;13.93;;;7.20;;
49051;SDS011;34866;48.670;18.260;2022-10-31T16:28:49;13.75;;;6.45;;
49051;SDS011;34866;48.670;18.260;2022-10-31T16:31:36;13.88;;;6.90;;
49051;SDS011;34866;48.670;18.260;2022-10-31T16:34:14;12.50;;;6.05;;
49051;SDS011;34866;48.670;18.260;2022-10-31T16:36:44;14.02;;;6.75;;
49051;SDS011;34866;48.670;18.260;2022-10-31T16:39:10;15.95;;;6.22;;
49051;SDS011;34866;48.670;18.260;2022-10-31T16:41:39;13.93;;;6.07;;
49051;SDS011;34866;48.670;18.260;2022-10-31T16:44:25;15.82;;;7.25;;
49051;SDS011;34866;48.670;18.260;2022-10-31T16:47:08;18.02;;;10.70;;
49051;SDS011;34866;48.670;18.260;2022-10-31T16:49:38;16.98;;;8.65;;
49051;SDS011;34866;48.670;18.260;2022-10-31T16:52:04;19.90;;;7.55;;
49051;SDS011;34866;48.670;18.260;2022-10-31T16:54:30;19.08;;;7.07;;
49051;SDS011;34866;48.670;18.260;2022-10-31T16:56:57;14.50;;;7.38;;
49051;SDS011;34866;48.670;18.260;2022-10-31T16:59:24;17.67;;;7.25;;
49051;SDS011;34866;48.670;18.260;2022-10-31T17:01:53;16.73;;;7.35;;
49051;SDS011;34866;48.670;18.260;2022-10-31T17:04:20;20.58;;;7.38;;
49051;SDS011;34866;48.670;18.260;2022-10-31T17:06:46;15.52;;;6.85;;
49051;SDS011;34866;48.670;18.260;2022-10-31T17:09:12;13.25;;;7.15;;
49051;SDS011;34866;48.670;18.260;2022-10-31T17:11:41;19.45;;;7.82;;
49051;SDS011;34866;48.670;18.260;2022-10-31T17:14:10;15.95;;;7.72;;
49051;SDS011;34866;48.670;18.260;2022-10-31T17:16:37;17.00;;;7.07;;
49051;SDS011;34866;48.670;18.260;2022-10-31T17:19:02;14.85;;;8.15;;
49051;SDS011;34866;48.670;18.260;2022-10-31T17:21:30;18.55;;;7.78;;
49051;SDS011;34866;48.670;18.260;2022-10-31T17:23:56;14.70;;;7.50;;
49051;SDS011;34866;48.670;18.260;2022-10-31T17:26:24;18.30;;;8.38;;
49051;SDS011;34866;48.670;18.260;2022-10-31T17:28:51;18.73;;;8.43;;
49051;SDS011;34866;48.670;18.260;2022-10-31T17:33:42;12.88;;;6.20;;
49051;SDS011;34866;48.670;18.260;2022-10-31T17:36:08;15.88;;;7.03;;
49051;SDS011;34866;48.670;18.260;2022-10-31T17:38:35;17.23;;;7.97;;
49051;SDS011;34866;48.670;18.260;2022-10-31T17:41:06;18.83;;;8.00;;
49051;SDS011;34866;48.670;18.260;2022-10-31T17:43:32;16.35;;;7.45;;
49051;SDS011;34866;48.670;18.260;2022-10-31T17:46:01;16.30;;;7.45;;
49051;SDS011;34866;48.670;18.260;2022-10-31T17:48:27;17.85;;;8.25;;
49051;SDS011;34866;48.670;18.260;2022-10-31T17:51:00;17.55;;;8.05;;
49051;SDS011;34866;48.670;18.260;2022-10-31T17:53:34;34.15;;;14.05;;
49051;SDS011;34866;48.670;18.260;2022-10-31T17:56:03;17.13;;;8.63;;
49051;SDS011;34866;48.670;18.260;2022-10-31T17:58:31;19.65;;;8.20;;
49051;SDS011;34866;48.670;18.260;2022-10-31T18:00:58;21.67;;;9.68;;